Time;durP1;ratioP1;P1;durP2;ratioP2;P2;SDS_P1;SDS_P2;PMS_P1;PMS_P2;Temp;Humidity;BMP_temperature;BMP_pressure;BME280_temperature;BME280_humidity;BME280_pressure;Samples;Min_cycle;Max_cycle;Signal;HPM_P1;HPM_P2
2021/10/18 00:01:28;;;;;;;21.47;16.90;;;;;;;;;;4971283;28;20198;-88
2021/10/18 00:04:32;;;;;;;37.17;20.00;;;;;;;;;;4965102;28;20691;-88
2021/10/18 00:07:37;;;;;;;41.93;20.73;;;;;;;;;;4971015;28;20190;-88
2021/10/18 00:10:42;;;;;;;24.63;18.07;;;;;;;;;;4959882;28;20225;-88
2021/10/18 00:13:46;;;;;;;25.57;19.07;;;;;;;;;;4982293;28;20191;-88
2021/10/18 00:16:51;;;;;;;39.43;19.73;;;;;;;;;;4961051;28;20220;-88
2021/10/18 00:19:58;;;;;;;38.97;19.50;;;;;;;;;;4964612;28;20230;-88
2021/10/18 00:23:02;;;;;;;33.67;20.77;;;;;;;;;;4973104;28;20185;-88
2021/10/18 00:26:07;;;;;;;25.13;19.73;;;;;;;;;;4974921;28;20182;-88
2021/10/18 00:29:11;;;;;;;60.60;19.80;;;;;;;;;;4975043;28;20226;-88
2021/10/18 00:32:15;;;;;;;38.77;20.90;;;;;;;;;;4992153;28;20208;-88
2021/10/18 00:35:19;;;;;;;26.47;20.33;;;;;;;;;;4982972;28;20188;-88
2021/10/18 00:38:23;;;;;;;27.87;21.40;;;;;;;;;;4991467;28;20202;-88
2021/10/18 00:41:28;;;;;;;43.70;21.33;;;;;;;;;;4969479;28;20202;-88
2021/10/18 00:44:32;;;;;;;46.37;21.57;;;;;;;;;;4963761;28;20205;-88
2021/10/18 00:47:37;;;;;;;26.47;20.03;;;;;;;;;;4963283;28;20208;-87
2021/10/18 00:50:41;;;;;;;44.03;21.20;;;;;;;;;;4985618;28;20233;-87
2021/10/18 00:53:46;;;;;;;39.77;21.03;;;;;;;;;;4978244;28;20204;-87
2021/10/18 00:56:51;;;;;;;47.40;21.33;;;;;;;;;;4974015;28;20221;-87
2021/10/18 00:59:57;;;;;;;39.37;22.53;;;;;;;;;;4974266;28;20228;-86
2021/10/18 01:03:01;;;;;;;70.27;22.07;;;;;;;;;;4973893;28;20206;-87
2021/10/18 01:06:05;;;;;;;31.53;20.77;;;;;;;;;;4993398;28;20572;-87
2021/10/18 01:09:09;;;;;;;28.43;19.83;;;;;;;;;;4982419;28;20653;-87
2021/10/18 01:12:13;;;;;;;29.87;21.87;;;;;;;;;;4993227;28;20204;-87
2021/10/18 01:15:17;;;;;;;30.87;21.43;;;;;;;;;;4978382;28;20209;-87
2021/10/18 01:18:21;;;;;;;52.73;21.97;;;;;;;;;;4974208;28;20185;-86
2021/10/18 01:21:25;;;;;;;68.70;21.90;;;;;;;;;;4969861;28;20216;-87
2021/10/18 01:24:31;;;;;;;32.73;20.73;;;;;;;;;;4993421;28;20191;-87
2021/10/18 01:27:35;;;;;;;34.43;20.37;;;;;;;;;;4988566;28;20224;-87
2021/10/18 01:30:39;;;;;;;34.73;22.33;;;;;;;;;;4964790;28;20220;-87
2021/10/18 01:33:44;;;;;;;32.57;22.60;;;;;;;;;;4962497;28;20225;-87
2021/10/18 01:36:49;;;;;;;36.40;21.90;;;;;;;;;;4978981;28;20248;-87
2021/10/18 01:39:53;;;;;;;39.70;24.60;;;;;;;;;;4992575;28;20237;-86
2021/10/18 01:42:57;;;;;;;34.23;22.40;;;;;;;;;;4964241;28;20217;-88
2021/10/18 01:46:03;;;;;;;38.07;23.27;;;;;;;;;;4972719;28;20205;-89
2021/10/18 01:49:08;;;;;;;36.07;21.57;;;;;;;;;;4981321;28;20185;-88
2021/10/18 01:52:12;;;;;;;32.50;22.10;;;;;;;;;;4968485;28;20186;-89
2021/10/18 01:55:18;;;;;;;53.27;23.97;;;;;;;;;;4973546;28;20209;-88
2021/10/18 01:58:22;;;;;;;35.00;23.03;;;;;;;;;;4974537;28;20195;-89
2021/10/18 02:01:26;;;;;;;47.10;22.07;;;;;;;;;;4977904;28;20214;-89
2021/10/18 02:04:30;;;;;;;37.03;23.23;;;;;;;;;;5002875;28;20190;-88
2021/10/18 02:07:34;;;;;;;30.03;22.33;;;;;;;;;;4975721;28;20185;-88
2021/10/18 02:10:39;;;;;;;31.37;22.27;;;;;;;;;;4972848;28;20225;-89
2021/10/18 02:13:43;;;;;;;31.33;21.10;;;;;;;;;;4962132;28;20191;-89
2021/10/18 02:16:47;;;;;;;38.93;21.47;;;;;;;;;;4984118;28;20569;-89
2021/10/18 02:19:51;;;;;;;26.50;19.67;;;;;;;;;;4964922;28;20218;-88
2021/10/18 02:22:55;;;;;;;31.60;21.30;;;;;;;;;;4982892;28;20208;-88
2021/10/18 02:25:59;;;;;;;77.97;21.53;;;;;;;;;;4972699;28;20205;-89
2021/10/18 02:29:03;;;;;;;59.27;22.50;;;;;;;;;;4961650;28;20666;-88
2021/10/18 02:32:07;;;;;;;70.17;22.47;;;;;;;;;;4961578;28;20652;-89
2021/10/18 02:35:11;;;;;;;32.60;21.00;;;;;;;;;;4962162;28;20208;-89
2021/10/18 02:38:15;;;;;;;42.47;22.07;;;;;;;;;;4980426;28;20239;-88
2021/10/18 02:41:19;;;;;;;102.60;22.60;;;;;;;;;;4980367;28;20198;-88
2021/10/18 02:44:23;;;;;;;30.90;21.53;;;;;;;;;;4980031;28;20205;-89
2021/10/18 02:47:27;;;;;;;32.37;22.13;;;;;;;;;;4982414;28;20560;-89
2021/10/18 02:50:31;;;;;;;30.73;20.73;;;;;;;;;;4983412;28;20591;-88
2021/10/18 02:53:35;;;;;;;30.07;20.60;;;;;;;;;;4965120;28;20212;-89
2021/10/18 02:56:39;;;;;;;35.10;21.40;;;;;;;;;;4991298;28;20236;-88
2021/10/18 02:59:43;;;;;;;55.20;22.07;;;;;;;;;;4982579;28;20225;-88
2021/10/18 03:02:47;;;;;;;29.30;20.73;;;;;;;;;;4968704;28;20205;-89
2021/10/18 03:05:51;;;;;;;29.80;20.13;;;;;;;;;;4968875;28;20209;-88
2021/10/18 03:08:55;;;;;;;27.60;19.73;;;;;;;;;;4976793;28;20203;-88
2021/10/18 03:11:59;;;;;;;28.27;20.17;;;;;;;;;;4984641;28;20216;-88
2021/10/18 03:15:05;;;;;;;34.50;19.43;;;;;;;;;;4972037;28;20182;-88
2021/10/18 03:18:09;;;;;;;27.80;18.93;;;;;;;;;;4955357;28;20225;-88
2021/10/18 03:21:14;;;;;;;26.00;19.00;;;;;;;;;;4962398;28;20237;-88
2021/10/18 03:24:18;;;;;;;38.00;20.47;;;;;;;;;;4979375;28;20206;-89
2021/10/18 03:27:22;;;;;;;57.20;21.33;;;;;;;;;;4970266;28;20558;-88
2021/10/18 03:30:26;;;;;;;33.03;21.60;;;;;;;;;;4960598;28;20229;-88
2021/10/18 03:33:38;;;;;;;128.17;22.60;;;;;;;;;;4960477;28;20193;-88
2021/10/18 03:36:42;;;;;;;103.23;21.27;;;;;;;;;;4960099;28;20193;-88
2021/10/18 03:40:11;;;;;;;47.53;18.57;;;;;;;;;;5017102;23;20238;-86
2021/10/18 03:48:37;;;;;;;35.30;19.83;;;;;;;;;;5013151;28;20659;-86
2021/10/18 03:52:08;;;;;;;29.80;19.30;;;;;;;;;;4965267;28;20194;-86
2021/10/18 03:55:17;;;;;;;26.93;18.67;;;;;;;;;;4956928;28;20746;-86
2021/10/18 04:33:25;;;;;;;142.93;22.27;;;;;;;;;;4896183;29;20209;-88
2021/10/18 04:42:40;;;;;;;30.70;19.53;;;;;;;;;;4880050;29;20620;-85
2021/10/18 04:46:27;;;;;;;65.43;21.77;;;;;;;;;;4885332;29;20307;-89
2021/10/18 04:50:29;;;;;;;44.60;21.67;;;;;;;;;;4927375;23;20237;-88
2021/10/18 04:53:38;;;;;;;39.17;21.20;;;;;;;;;;4952376;29;20230;-86
2021/10/18 04:57:08;;;;;;;30.63;19.93;;;;;;;;;;4921867;29;20194;-86
2021/10/18 05:00:59;;;;;;;;;;;;;;;;;;;;;
2021/10/18 05:05:05;;;;;;;96.80;20.17;;;;;;;;;;4937798;29;20678;-88
2021/10/18 05:12:20;;;;;;;28.97;18.87;;;;;;;;;;4971815;28;20247;-74
2021/10/18 05:15:25;;;;;;;35.47;20.13;;;;;;;;;;4960649;28;20212;-74
2021/10/18 05:18:29;;;;;;;31.00;19.70;;;;;;;;;;4976807;28;20219;-74
2021/10/18 05:21:33;;;;;;;33.20;19.63;;;;;;;;;;4977054;28;20225;-74
2021/10/18 05:24:37;;;;;;;33.60;19.77;;;;;;;;;;4976613;28;20699;-74
2021/10/18 05:27:42;;;;;;;36.23;22.40;;;;;;;;;;4976934;28;20214;-73
2021/10/18 05:30:46;;;;;;;31.63;20.10;;;;;;;;;;4976067;28;20235;-74
2021/10/18 05:33:50;;;;;;;33.40;19.70;;;;;;;;;;4976308;28;20198;-74
2021/10/18 05:36:54;;;;;;;35.33;20.10;;;;;;;;;;4976520;28;20555;-73
2021/10/18 05:39:59;;;;;;;57.03;19.50;;;;;;;;;;4977003;28;20182;-74
2021/10/18 05:43:03;;;;;;;49.93;19.03;;;;;;;;;;4976756;28;20192;-74
2021/10/18 05:46:07;;;;;;;32.10;18.00;;;;;;;;;;4967354;28;20677;-73
2021/10/18 05:49:11;;;;;;;36.27;18.63;;;;;;;;;;4963554;28;20193;-74
2021/10/18 05:52:15;;;;;;;36.47;18.30;;;;;;;;;;4976409;28;20249;-74
2021/10/18 05:55:19;;;;;;;33.87;18.40;;;;;;;;;;4976457;28;20227;-74
2021/10/18 05:58:24;;;;;;;29.13;16.67;;;;;;;;;;4976262;28;20685;-73
2021/10/18 06:01:29;;;;;;;40.07;16.90;;;;;;;;;;4975500;28;20222;-74
2021/10/18 06:04:35;;;;;;;48.53;17.87;;;;;;;;;;4986192;28;20205;-74
2021/10/18 06:07:40;;;;;;;40.90;17.67;;;;;;;;;;4976627;28;20194;-73
2021/10/18 06:10:44;;;;;;;27.60;16.40;;;;;;;;;;4976131;28;20226;-74
2021/10/18 06:13:48;;;;;;;58.70;18.83;;;;;;;;;;4976382;28;20190;-74
2021/10/18 06:16:52;;;;;;;26.13;14.53;;;;;;;;;;4976010;28;20213;-74
2021/10/18 06:19:56;;;;;;;28.23;15.63;;;;;;;;;;4983642;28;20182;-75
2021/10/18 06:23:00;;;;;;;29.77;17.17;;;;;;;;;;4971678;28;20210;-74
2021/10/18 06:26:04;;;;;;;29.13;16.63;;;;;;;;;;4976198;28;20190;-74
2021/10/18 06:29:08;;;;;;;40.27;16.73;;;;;;;;;;4976578;28;20188;-77
2021/10/18 06:32:12;;;;;;;26.80;15.40;;;;;;;;;;4963843;28;20724;-77
2021/10/18 06:35:17;;;;;;;31.63;17.23;;;;;;;;;;4964177;28;20198;-75
2021/10/18 06:38:24;;;;;;;30.37;16.57;;;;;;;;;;4974715;28;20226;-75
2021/10/18 06:41:28;;;;;;;25.90;15.83;;;;;;;;;;4974996;28;20605;-75
2021/10/18 06:44:32;;;;;;;33.00;16.57;;;;;;;;;;4970536;28;20203;-75
2021/10/18 06:47:37;;;;;;;39.33;17.83;;;;;;;;;;4975493;28;20194;-75
2021/10/18 06:50:43;;;;;;;31.90;17.63;;;;;;;;;;4975107;28;20226;-75
2021/10/18 06:53:52;;;;;;;39.30;18.40;;;;;;;;;;4975453;28;20182;-75
2021/10/18 06:56:56;;;;;;;29.87;15.63;;;;;;;;;;4975561;28;20210;-74
2021/10/18 07:00:01;;;;;;;30.20;15.77;;;;;;;;;;4975541;28;20198;-75
2021/10/18 07:03:05;;;;;;;33.47;18.13;;;;;;;;;;4982078;28;20571;-74
2021/10/18 07:06:09;;;;;;;42.33;17.60;;;;;;;;;;4982924;28;20195;-75
2021/10/18 07:09:12;;;;;;;36.23;18.53;;;;;;;;;;4993837;28;20179;-76
2021/10/18 07:12:17;;;;;;;36.23;15.40;;;;;;;;;;4994470;28;20222;-76
2021/10/18 07:15:21;;;;;;;48.13;17.90;;;;;;;;;;4994991;28;20209;-75
2021/10/18 07:18:27;;;;;;;39.10;17.93;;;;;;;;;;4993654;28;20216;-75
2021/10/18 07:21:31;;;;;;;53.27;17.63;;;;;;;;;;4993747;28;20717;-75
2021/10/18 07:24:35;;;;;;;41.80;17.87;;;;;;;;;;4994277;28;20676;-75
2021/10/18 07:27:42;;;;;;;32.77;17.10;;;;;;;;;;4994440;28;20212;-75
2021/10/18 07:30:46;;;;;;;35.27;18.33;;;;;;;;;;4993652;28;20225;-74
2021/10/18 07:33:52;;;;;;;38.33;18.77;;;;;;;;;;4992956;28;20216;-75
2021/10/18 07:36:56;;;;;;;34.63;20.07;;;;;;;;;;4993298;28;20189;-75
2021/10/18 07:40:00;;;;;;;32.00;18.33;;;;;;;;;;4994221;28;20221;-75
2021/10/18 07:43:06;;;;;;;28.70;18.10;;;;;;;;;;4994003;28;20195;-75
2021/10/18 07:46:10;;;;;;;26.17;16.33;;;;;;;;;;4993576;28;20210;-75
2021/10/18 07:49:14;;;;;;;37.30;17.33;;;;;;;;;;4966690;28;20183;-75
2021/10/18 07:52:19;;;;;;;27.90;17.37;;;;;;;;;;4962790;28;20295;-74
2021/10/18 07:55:22;;;;;;;29.17;17.27;;;;;;;;;;4974396;28;20211;-75
2021/10/18 07:58:27;;;;;;;29.07;17.03;;;;;;;;;;4974828;28;20694;-75
2021/10/18 08:01:30;;;;;;;30.00;16.90;;;;;;;;;;4974302;28;20721;-74
2021/10/18 08:04:35;;;;;;;26.93;15.80;;;;;;;;;;4962458;28;20228;-74
2021/10/18 08:07:40;;;;;;;34.33;17.97;;;;;;;;;;4973443;28;20212;-75
2021/10/18 08:10:44;;;;;;;30.87;18.67;;;;;;;;;;4962273;28;20234;-75
2021/10/18 08:13:48;;;;;;;32.97;18.50;;;;;;;;;;4974539;28;20199;-75
2021/10/18 08:16:52;;;;;;;29.77;17.47;;;;;;;;;;4974943;28;20183;-74
2021/10/18 08:19:57;;;;;;;29.23;17.80;;;;;;;;;;4983900;28;20237;-74
2021/10/18 08:23:01;;;;;;;30.73;17.67;;;;;;;;;;4986440;28;20212;-75
2021/10/18 08:26:06;;;;;;;30.87;17.67;;;;;;;;;;4974326;28;20208;-75
2021/10/18 08:29:10;;;;;;;30.50;17.63;;;;;;;;;;4966773;28;20199;-75
2021/10/18 08:32:14;;;;;;;33.87;18.63;;;;;;;;;;4982055;28;20719;-75
2021/10/18 08:35:19;;;;;;;32.87;18.63;;;;;;;;;;4993739;28;20190;-75
2021/10/18 08:41:39;;;;;;;30.40;17.87;;;;;;;;;;4974924;28;20233;-75
2021/10/18 08:44:43;;;;;;;34.33;18.53;;;;;;;;;;4993256;28;20550;-75
2021/10/18 08:47:48;;;;;;;33.47;19.30;;;;;;;;;;4995548;28;20205;-75
2021/10/18 08:50:52;;;;;;;32.60;20.00;;;;;;;;;;4996695;28;20224;-75
2021/10/18 08:53:56;;;;;;;31.40;18.20;;;;;;;;;;4989873;28;20200;-75
2021/10/18 08:57:00;;;;;;;31.63;18.97;;;;;;;;;;4985097;28;20676;-75
2021/10/18 09:00:07;;;;;;;35.17;18.97;;;;;;;;;;4989322;28;20215;-75
2021/10/18 09:03:26;;;;;;;35.30;18.50;;;;;;;;;;4977247;28;20213;-74
2021/10/18 09:06:32;;;;;;;35.77;18.63;;;;;;;;;;4989513;28;20293;-76
2021/10/18 09:09:50;;;;;;;38.37;19.77;;;;;;;;;;4961304;28;20230;-76
2021/10/18 09:13:08;;;;;;;41.67;20.17;;;;;;;;;;4994190;28;20201;-76
2021/10/18 09:16:26;;;;;;;35.60;19.23;;;;;;;;;;4996647;28;20194;-76
2021/10/18 09:19:30;;;;;;;35.43;19.83;;;;;;;;;;4965373;28;20233;-76
2021/10/18 09:22:34;;;;;;;34.27;18.93;;;;;;;;;;4990413;28;20229;-75
2021/10/18 09:25:38;;;;;;;35.27;19.93;;;;;;;;;;4985109;28;20680;-76
2021/10/18 09:28:44;;;;;;;34.87;19.43;;;;;;;;;;4984165;28;20557;-75
2021/10/18 09:32:03;;;;;;;37.13;20.50;;;;;;;;;;4996313;28;20233;-76
2021/10/18 09:35:11;;;;;;;29.03;17.47;;;;;;;;;;4994893;28;20684;-75
2021/10/18 09:38:17;;;;;;;33.63;19.43;;;;;;;;;;4981941;28;20201;-75
2021/10/18 09:41:23;;;;;;;31.73;18.43;;;;;;;;;;4995546;28;20233;-76
2021/10/18 10:53:46;;;;;;;29.23;17.67;;;;;;;;;;4990643;28;20205;-76
2021/10/18 10:57:01;;;;;;;32.87;19.53;;;;;;;;;;4971406;28;20209;-78
2021/10/18 11:00:06;;;;;;;36.63;21.63;;;;;;;;;;4983824;28;20246;-77
2021/10/18 11:03:39;;;;;;;30.33;20.13;;;;;;;;;;4981651;28;20201;-77
2021/10/18 11:06:46;;;;;;;30.83;19.97;;;;;;;;;;4979347;28;20202;-77
2021/10/18 11:09:55;;;;;;;34.07;21.30;;;;;;;;;;4986464;28;20221;-77
2021/10/18 11:13:05;;;;;;;28.40;19.27;;;;;;;;;;4992688;28;20213;-77
2021/10/18 11:16:10;;;;;;;32.63;21.10;;;;;;;;;;4980635;28;20193;-78
2021/10/18 11:19:21;;;;;;;33.57;21.07;;;;;;;;;;4981061;28;20290;-77
2021/10/18 11:22:33;;;;;;;31.03;19.93;;;;;;;;;;4981725;28;20303;-77
2021/10/18 11:25:39;;;;;;;32.97;21.30;;;;;;;;;;4973964;28;20210;-77
2021/10/18 11:28:43;;;;;;;32.20;21.47;;;;;;;;;;4981670;28;20201;-78
2021/10/18 11:31:48;;;;;;;30.70;21.13;;;;;;;;;;4993603;28;20229;-77
2021/10/18 11:35:06;;;;;;;33.07;20.90;;;;;;;;;;4971446;28;20202;-77
2021/10/18 11:38:13;;;;;;;29.10;19.23;;;;;;;;;;4969698;28;20210;-78
2021/10/18 11:41:17;;;;;;;29.80;20.53;;;;;;;;;;4972098;28;20229;-77
2021/10/18 11:44:43;;;;;;;33.60;22.00;;;;;;;;;;4976224;28;20213;-78
2021/10/18 11:47:47;;;;;;;32.37;21.57;;;;;;;;;;4975481;28;20205;-78
2021/10/18 11:50:54;;;;;;;31.80;21.07;;;;;;;;;;4965086;28;20224;-77
2021/10/18 11:53:58;;;;;;;35.37;21.50;;;;;;;;;;4955209;29;20198;-77
2021/10/18 11:57:03;;;;;;;34.43;22.37;;;;;;;;;;4973949;28;20685;-78
2021/10/18 12:00:12;;;;;;;34.70;22.60;;;;;;;;;;4992177;28;20604;-77
2021/10/18 12:03:18;;;;;;;32.20;21.60;;;;;;;;;;4982252;28;20685;-77
2021/10/18 12:06:21;;;;;;;34.20;22.60;;;;;;;;;;4988138;28;20213;-78
2021/10/18 12:09:27;;;;;;;36.93;23.03;;;;;;;;;;4994725;28;20201;-78
2021/10/18 12:12:32;;;;;;;36.87;23.47;;;;;;;;;;4997145;28;20253;-77
2021/10/18 12:15:46;;;;;;;37.80;24.13;;;;;;;;;;4976003;28;20205;-77
2021/10/18 12:18:58;;;;;;;37.83;23.80;;;;;;;;;;4984327;28;20699;-77
2021/10/18 12:22:06;;;;;;;32.53;22.33;;;;;;;;;;4984723;28;20725;-78
2021/10/18 12:25:10;;;;;;;33.43;22.40;;;;;;;;;;4962205;28;20681;-76
2021/10/18 12:28:25;;;;;;;34.47;22.97;;;;;;;;;;4991138;28;20225;-76
2021/10/18 12:31:31;;;;;;;35.50;22.13;;;;;;;;;;4981838;28;20588;-76
2021/10/18 12:34:35;;;;;;;35.43;23.00;;;;;;;;;;4968549;28;20198;-77
2021/10/18 12:37:39;;;;;;;33.33;22.10;;;;;;;;;;4965284;28;20214;-76
2021/10/18 12:40:43;;;;;;;33.13;22.30;;;;;;;;;;4965360;28;20602;-76
2021/10/18 12:43:49;;;;;;;35.43;22.97;;;;;;;;;;4977240;28;20541;-76
2021/10/18 12:46:53;;;;;;;33.10;21.03;;;;;;;;;;4977159;28;20194;-76
2021/10/18 12:50:07;;;;;;;32.63;21.63;;;;;;;;;;4977731;28;20708;-76
2021/10/18 12:53:12;;;;;;;31.87;21.27;;;;;;;;;;4965863;28;20202;-76
2021/10/18 12:56:23;;;;;;;31.37;21.07;;;;;;;;;;4977870;28;20189;-76
2021/10/18 12:59:29;;;;;;;32.40;21.97;;;;;;;;;;4965745;28;20198;-76
2021/10/18 13:02:35;;;;;;;34.07;24.00;;;;;;;;;;4976665;28;20245;-76
2021/10/18 13:05:55;;;;;;;33.47;22.70;;;;;;;;;;4976611;28;20194;-76
2021/10/18 13:09:00;;;;;;;31.77;21.67;;;;;;;;;;4976573;28;20673;-76
2021/10/18 13:12:04;;;;;;;30.00;22.07;;;;;;;;;;4976423;28;20217;-76
2021/10/18 13:15:09;;;;;;;34.83;20.97;;;;;;;;;;4977230;28;20237;-76
2021/10/18 13:18:15;;;;;;;29.53;20.97;;;;;;;;;;4976892;28;20210;-76
2021/10/18 13:21:19;;;;;;;28.43;20.73;;;;;;;;;;4978035;28;20612;-76
2021/10/18 13:24:23;;;;;;;29.03;20.97;;;;;;;;;;4977947;28;20209;-76
2021/10/18 13:27:27;;;;;;;33.47;22.40;;;;;;;;;;4977543;28;20189;-76
2021/10/18 13:30:32;;;;;;;34.43;23.23;;;;;;;;;;4976510;28;20190;-76
2021/10/18 13:33:35;;;;;;;36.60;23.37;;;;;;;;;;4976990;28;20198;-76
2021/10/18 13:36:40;;;;;;;34.90;24.17;;;;;;;;;;4977078;28;20213;-77
2021/10/18 13:39:44;;;;;;;32.50;23.23;;;;;;;;;;4976770;28;20217;-76
2021/10/18 13:42:48;;;;;;;34.23;23.10;;;;;;;;;;4976865;28;20657;-77
2021/10/18 13:45:52;;;;;;;36.17;24.77;;;;;;;;;;4976090;28;20657;-76
2021/10/18 13:48:56;;;;;;;36.40;25.40;;;;;;;;;;4976587;28;20194;-76
2021/10/18 13:52:01;;;;;;;38.27;26.80;;;;;;;;;;4975642;28;20225;-77
2021/10/18 13:55:06;;;;;;;39.67;26.03;;;;;;;;;;4976026;28;20210;-76
2021/10/18 13:58:10;;;;;;;39.30;25.63;;;;;;;;;;4975931;28;20652;-76
2021/10/18 14:01:15;;;;;;;43.57;27.77;;;;;;;;;;4975450;28;20237;-76
2021/10/18 14:04:20;;;;;;;40.03;27.30;;;;;;;;;;4974240;28;20198;-76
2021/10/18 14:07:24;;;;;;;37.83;26.07;;;;;;;;;;4975499;28;20189;-76
2021/10/18 14:10:28;;;;;;;39.07;25.87;;;;;;;;;;4976312;28;20214;-77
2021/10/18 14:13:33;;;;;;;41.47;27.33;;;;;;;;;;4984444;28;20201;-76
2021/10/18 14:16:37;;;;;;;42.67;27.33;;;;;;;;;;4964394;28;20272;-76
2021/10/18 14:19:42;;;;;;;37.23;26.57;;;;;;;;;;4972597;28;20198;-76
2021/10/18 14:22:46;;;;;;;42.00;28.33;;;;;;;;;;4988935;28;20225;-76
2021/10/18 14:25:50;;;;;;;52.90;27.97;;;;;;;;;;4963887;28;20202;-76
2021/10/18 14:28:55;;;;;;;43.67;29.10;;;;;;;;;;4973486;28;20708;-76
2021/10/18 14:32:00;;;;;;;45.53;30.10;;;;;;;;;;4973257;28;20229;-76
2021/10/18 14:35:05;;;;;;;42.27;28.43;;;;;;;;;;4988093;28;20210;-77
2021/10/18 14:38:09;;;;;;;43.70;28.63;;;;;;;;;;4972742;28;20304;-77
2021/10/18 14:41:13;;;;;;;43.40;28.00;;;;;;;;;;4983647;28;20735;-77
2021/10/18 14:44:18;;;;;;;45.73;29.13;;;;;;;;;;4952621;29;20210;-76
2021/10/18 14:47:22;;;;;;;46.57;29.77;;;;;;;;;;4952370;29;20194;-77
2021/10/18 14:50:26;;;;;;;50.63;32.43;;;;;;;;;;4952319;29;20203;-77
2021/10/18 14:53:30;;;;;;;47.43;29.80;;;;;;;;;;4985651;28;20212;-76
2021/10/18 14:56:34;;;;;;;49.80;31.23;;;;;;;;;;4966390;28;20201;-78
2021/10/18 14:59:38;;;;;;;50.87;30.93;;;;;;;;;;4959188;28;20193;-77
2021/10/18 15:02:46;;;;;;;51.23;31.27;;;;;;;;;;4974935;28;20225;-77
2021/10/18 15:05:50;;;;;;;50.47;31.67;;;;;;;;;;4972502;28;20201;-77
2021/10/18 15:08:56;;;;;;;51.60;31.03;;;;;;;;;;4972197;28;20666;-77
2021/10/18 15:12:02;;;;;;;53.80;32.07;;;;;;;;;;4972106;28;20795;-77
2021/10/18 15:15:07;;;;;;;52.43;33.60;;;;;;;;;;4973219;28;20195;-77
2021/10/18 15:18:11;;;;;;;46.67;29.43;;;;;;;;;;4991833;28;20186;-78
2021/10/18 15:21:15;;;;;;;47.13;29.43;;;;;;;;;;4987511;28;20249;-77
2021/10/18 15:24:20;;;;;;;47.63;29.77;;;;;;;;;;4990378;28;20213;-77
2021/10/18 15:27:25;;;;;;;46.07;28.00;;;;;;;;;;4989345;28;20221;-78
2021/10/18 15:30:29;;;;;;;50.20;30.40;;;;;;;;;;4967104;28;20203;-77
2021/10/18 15:33:33;;;;;;;44.43;27.30;;;;;;;;;;4978058;28;20193;-77
2021/10/18 15:36:38;;;;;;;39.00;25.60;;;;;;;;;;4990892;28;20208;-77
2021/10/18 15:39:42;;;;;;;45.67;27.83;;;;;;;;;;4983164;28;20268;-77
2021/10/18 15:42:47;;;;;;;43.03;26.87;;;;;;;;;;4990016;28;20231;-77
2021/10/18 15:45:52;;;;;;;48.80;28.70;;;;;;;;;;4970998;28;20214;-78
2021/10/18 15:48:56;;;;;;;49.90;28.67;;;;;;;;;;4979043;28;20205;-77
2021/10/18 15:52:00;;;;;;;49.33;28.43;;;;;;;;;;4990124;28;20234;-78
2021/10/18 15:55:08;;;;;;;43.17;26.80;;;;;;;;;;4987582;28;20724;-76
2021/10/18 15:58:12;;;;;;;45.57;27.47;;;;;;;;;;4972623;28;20205;-77
2021/10/18 16:01:16;;;;;;;43.60;26.87;;;;;;;;;;4986934;28;20245;-77
2021/10/18 16:04:20;;;;;;;42.90;26.50;;;;;;;;;;4990345;28;20191;-77
2021/10/18 16:07:24;;;;;;;43.47;26.13;;;;;;;;;;4989836;28;20213;-78
2021/10/18 16:10:28;;;;;;;45.63;25.83;;;;;;;;;;4978485;28;20241;-77
2021/10/18 16:13:32;;;;;;;46.53;25.27;;;;;;;;;;4989907;28;20892;-77
2021/10/18 16:16:38;;;;;;;42.03;25.80;;;;;;;;;;4972577;28;20218;-77
2021/10/18 16:19:42;;;;;;;41.00;25.27;;;;;;;;;;4989394;28;20222;-76
2021/10/18 16:22:46;;;;;;;43.53;25.53;;;;;;;;;;4987945;28;20222;-77
2021/10/18 16:25:53;;;;;;;39.17;24.07;;;;;;;;;;4951246;29;20187;-76
2021/10/18 16:28:58;;;;;;;38.70;24.17;;;;;;;;;;4953222;28;20187;-77
2021/10/18 16:32:04;;;;;;;39.03;26.07;;;;;;;;;;4982037;28;20233;-76
2021/10/18 16:35:08;;;;;;;39.47;25.10;;;;;;;;;;4979656;28;20202;-79
2021/10/18 16:38:13;;;;;;;41.73;25.53;;;;;;;;;;4972182;28;20192;-77
2021/10/18 16:41:17;;;;;;;39.63;24.43;;;;;;;;;;4988037;28;20236;-77
2021/10/18 16:44:22;;;;;;;39.03;25.47;;;;;;;;;;4963455;28;20249;-79
2021/10/18 16:47:26;;;;;;;40.13;25.07;;;;;;;;;;4967764;28;20198;-78
2021/10/18 16:50:30;;;;;;;36.50;24.17;;;;;;;;;;4971538;28;20203;-78
2021/10/18 16:53:34;;;;;;;35.97;22.67;;;;;;;;;;4959239;28;20198;-78
2021/10/18 16:56:38;;;;;;;39.07;24.57;;;;;;;;;;4962474;28;20209;-78
2021/10/18 16:59:42;;;;;;;40.07;24.93;;;;;;;;;;4978041;28;20213;-77
2021/10/18 17:02:47;;;;;;;38.63;25.00;;;;;;;;;;4991727;28;20596;-79
2021/10/18 17:05:53;;;;;;;38.30;24.67;;;;;;;;;;4991215;28;20209;-78
2021/10/18 17:08:57;;;;;;;36.73;23.33;;;;;;;;;;4990274;28;20580;-78
2021/10/18 17:12:02;;;;;;;40.57;25.00;;;;;;;;;;4994034;28;20232;-78
2021/10/18 17:15:07;;;;;;;40.80;26.00;;;;;;;;;;4976153;28;20197;-77
2021/10/18 17:18:11;;;;;;;45.07;26.07;;;;;;;;;;4947820;28;20218;-78
2021/10/18 17:21:15;;;;;;;42.57;26.30;;;;;;;;;;4975992;28;20234;-77
2021/10/18 17:24:21;;;;;;;42.00;25.03;;;;;;;;;;4976131;28;20215;-77
2021/10/18 17:27:25;;;;;;;39.90;24.10;;;;;;;;;;4974937;28;20545;-78
2021/10/18 17:30:34;;;;;;;40.03;24.53;;;;;;;;;;4976504;28;20208;-78
2021/10/18 17:33:40;;;;;;;42.87;24.63;;;;;;;;;;4965888;28;20201;-77
2021/10/18 17:36:46;;;;;;;38.90;25.07;;;;;;;;;;4983835;28;20195;-78
2021/10/18 17:39:50;;;;;;;42.47;26.80;;;;;;;;;;4974635;28;20190;-78
2021/10/18 17:42:55;;;;;;;40.80;25.33;;;;;;;;;;4974627;28;20218;-78
2021/10/18 17:46:05;;;;;;;39.57;25.43;;;;;;;;;;4987646;28;20202;-77
2021/10/18 17:49:09;;;;;;;40.27;25.23;;;;;;;;;;4947799;28;20207;-77
2021/10/18 17:52:13;;;;;;;40.40;25.53;;;;;;;;;;4977142;28;20225;-77
2021/10/18 17:55:17;;;;;;;37.67;24.47;;;;;;;;;;4992643;28;20199;-77
2021/10/18 17:58:21;;;;;;;41.57;25.80;;;;;;;;;;4972897;28;20586;-78
2021/10/18 18:01:26;;;;;;;40.47;25.63;;;;;;;;;;4951086;28;20712;-78
2021/10/18 18:04:30;;;;;;;40.33;24.87;;;;;;;;;;4954165;28;20207;-78
2021/10/18 18:07:36;;;;;;;39.73;25.63;;;;;;;;;;4954252;29;20191;-78
2021/10/18 18:10:40;;;;;;;38.30;24.07;;;;;;;;;;4959931;28;20218;-78
2021/10/18 18:13:45;;;;;;;36.67;24.73;;;;;;;;;;4984675;28;20186;-79
2021/10/18 18:16:52;;;;;;;38.83;25.30;;;;;;;;;;4993487;28;20825;-78
2021/10/18 18:19:56;;;;;;;38.10;24.50;;;;;;;;;;4991399;28;20206;-78
2021/10/18 18:23:01;;;;;;;41.40;24.97;;;;;;;;;;4979989;28;20225;-78
2021/10/18 18:26:05;;;;;;;43.67;26.50;;;;;;;;;;4961934;28;20194;-78
2021/10/18 18:29:09;;;;;;;40.83;25.93;;;;;;;;;;4972668;28;20217;-78
2021/10/18 18:32:13;;;;;;;42.70;26.07;;;;;;;;;;4978581;28;20636;-77
2021/10/18 18:35:19;;;;;;;43.43;28.07;;;;;;;;;;4992194;28;20189;-77
2021/10/18 18:38:23;;;;;;;41.17;25.53;;;;;;;;;;4980806;28;20198;-77
2021/10/18 18:41:27;;;;;;;48.63;28.53;;;;;;;;;;4990801;28;20252;-78
2021/10/18 18:44:31;;;;;;;46.73;29.03;;;;;;;;;;4992477;28;20200;-78
2021/10/18 18:47:36;;;;;;;49.10;28.23;;;;;;;;;;4983409;28;20199;-78
2021/10/18 18:50:40;;;;;;;44.83;26.77;;;;;;;;;;4973638;28;20191;-78
2021/10/18 18:53:45;;;;;;;49.23;27.97;;;;;;;;;;4975642;28;20185;-77
2021/10/18 18:56:49;;;;;;;47.20;29.00;;;;;;;;;;4963373;28;20190;-78
2021/10/18 18:59:54;;;;;;;47.73;29.53;;;;;;;;;;4974526;28;20273;-78
2021/10/18 19:02:58;;;;;;;48.70;27.43;;;;;;;;;;4988419;28;20224;-77
2021/10/18 19:06:03;;;;;;;42.67;26.57;;;;;;;;;;4986979;28;20194;-77
2021/10/18 19:09:07;;;;;;;40.90;27.17;;;;;;;;;;4982975;28;20189;-78
2021/10/18 19:12:13;;;;;;;48.73;27.83;;;;;;;;;;4990114;28;20248;-79
2021/10/18 19:15:18;;;;;;;44.10;27.77;;;;;;;;;;4975131;28;20193;-77
2021/10/18 19:18:22;;;;;;;46.67;27.03;;;;;;;;;;4981438;28;20197;-77
2021/10/18 19:21:26;;;;;;;43.27;27.20;;;;;;;;;;4979556;28;20230;-78
2021/10/18 19:24:30;;;;;;;44.43;26.83;;;;;;;;;;4972082;28;20197;-78
2021/10/18 19:27:36;;;;;;;44.20;27.37;;;;;;;;;;4967962;28;20202;-78
2021/10/18 19:30:40;;;;;;;49.70;28.70;;;;;;;;;;4991766;28;20189;-78
2021/10/18 19:33:44;;;;;;;45.93;27.90;;;;;;;;;;4977809;28;20203;-78
2021/10/18 19:36:50;;;;;;;59.93;30.07;;;;;;;;;;4971519;28;20178;-77
2021/10/18 19:39:54;;;;;;;47.10;29.63;;;;;;;;;;4960453;28;20202;-78
2021/10/18 19:42:59;;;;;;;50.63;30.33;;;;;;;;;;4968050;28;20210;-78
2021/10/18 19:46:03;;;;;;;47.30;28.23;;;;;;;;;;4989278;28;20224;-78
2021/10/18 19:49:08;;;;;;;44.67;27.43;;;;;;;;;;4991441;28;20203;-78
2021/10/18 19:52:16;;;;;;;59.17;31.20;;;;;;;;;;4979210;28;20226;-78
2021/10/18 19:55:20;;;;;;;57.23;31.47;;;;;;;;;;4984352;28;20281;-78
2021/10/18 19:58:24;;;;;;;43.83;28.23;;;;;;;;;;4977557;28;20198;-78
2021/10/18 20:01:29;;;;;;;84.10;27.13;;;;;;;;;;4979428;28;20930;-78
2021/10/18 20:04:33;;;;;;;73.23;24.87;;;;;;;;;;4978007;28;20209;-77
2021/10/18 20:07:38;;;;;;;166.43;25.97;;;;;;;;;;4970672;28;20213;-77